Time;durP1;ratioP1;P1;durP2;ratioP2;P2;SDS_P1;SDS_P2;PMS_P1;PMS_P2;Temp;Humidity;BMP_temperature;BMP_pressure;BME280_temperature;BME280_humidity;BME280_pressure;Samples;Min_cycle;Max_cycle;Signal;HPM_P1;HPM_P2
2024/04/04 00:00:41;;;;;;;9.05;1.83;;;;;;;12.65;100.00;99626.03;5059744;28;20477;-75
2024/04/04 00:03:07;;;;;;;9.00;1.40;;;;;;;12.66;100.00;99627.66;5026803;28;20485;-75
2024/04/04 00:05:32;;;;;;;7.03;1.40;;;;;;;12.66;100.00;99619.28;5043356;28;20029;-75
2024/04/04 00:07:58;;;;;;;7.50;1.60;;;;;;;12.65;100.00;99619.63;5043494;28;20060;-75
2024/04/04 00:10:24;;;;;;;10.93;1.77;;;;;;;12.65;100.00;99620.44;5010655;28;20036;-76
2024/04/04 00:12:50;;;;;;;7.57;1.60;;;;;;;12.62;100.00;99609.97;5027059;28;20131;-77
2024/04/04 00:15:15;;;;;;;7.97;1.40;;;;;;;12.62;100.00;99604.41;5043262;28;20037;-75
2024/04/04 00:17:43;;;;;;;8.60;1.80;;;;;;;12.60;100.00;99612.25;5043443;28;20127;-75
2024/04/04 00:20:14;;;;;;;11.00;2.13;;;;;;;12.64;100.00;99609.63;5026851;28;20100;-75
2024/04/04 00:22:43;;;;;;;7.13;1.52;;;;;;;12.63;100.00;99606.03;5043793;28;20045;-75
2024/04/04 00:25:09;;;;;;;6.93;1.10;;;;;;;12.62;100.00;99607.19;5077854;28;20037;-75
2024/04/04 00:27:34;;;;;;;9.38;1.45;;;;;;;12.62;100.00;99596.03;5077311;28;20037;-75
2024/04/04 00:30:00;;;;;;;8.13;1.23;;;;;;;12.61;100.00;99593.56;5043077;28;20040;-75
2024/04/04 00:32:26;;;;;;;7.05;1.10;;;;;;;12.65;100.00;99592.59;5026316;28;20072;-75
2024/04/04 00:34:51;;;;;;;4.57;1.10;;;;;;;12.64;100.00;99581.78;5042991;28;20043;-75
2024/04/04 00:37:17;;;;;;;4.03;1.00;;;;;;;12.62;100.00;99573.75;5059215;28;20082;-75
2024/04/04 00:39:43;;;;;;;6.07;1.42;;;;;;;12.61;100.00;99583.25;5043311;28;20040;-75
2024/04/04 00:42:08;;;;;;;6.18;1.00;;;;;;;12.63;100.00;99572.59;5042595;28;20445;-75
2024/04/04 00:44:34;;;;;;;4.35;0.98;;;;;;;12.61;100.00;99571.28;5025949;28;20492;-75
2024/04/04 00:46:59;;;;;;;7.15;1.00;;;;;;;12.61;100.00;99568.50;5050900;28;20047;-75
2024/04/04 00:49:25;;;;;;;3.88;1.10;;;;;;;12.61;100.00;99569.31;5042549;28;20041;-75
2024/04/04 00:51:50;;;;;;;3.65;0.82;;;;;;;12.61;100.00;99562.94;5025917;28;20040;-75
2024/04/04 00:54:15;;;;;;;4.25;0.77;;;;;;;12.60;100.00;99567.69;5025881;28;20035;-75
2024/04/04 00:56:41;;;;;;;7.97;1.10;;;;;;;12.62;100.00;99565.41;5047736;28;20040;-75
2024/04/04 00:59:11;;;;;;;7.43;1.42;;;;;;;12.65;100.00;99575.88;5026009;28;20036;-75
2024/04/04 01:01:37;;;;;;;6.68;1.00;;;;;;;12.63;100.00;99569.81;5042833;28;20075;-75
2024/04/04 01:04:03;;;;;;;6.32;1.23;;;;;;;12.63;100.00;99567.03;5025638;28;20036;-75
2024/04/04 01:06:29;;;;;;;7.63;1.50;;;;;;;12.64;100.00;99567.84;5042747;28;20042;-75
2024/04/04 01:08:55;;;;;;;5.20;0.98;;;;;;;12.61;100.00;99571.28;5041543;28;20488;-75
2024/04/04 01:11:20;;;;;;;7.03;1.30;;;;;;;12.64;100.00;99565.06;5059055;28;20036;-75
2024/04/04 01:13:46;;;;;;;10.43;1.90;;;;;;;12.64;100.00;99563.09;5041932;28;20040;-75
2024/04/04 01:16:11;;;;;;;6.97;1.48;;;;;;;12.62;100.00;99559.84;5026302;28;20032;-75
2024/04/04 01:18:37;;;;;;;9.10;1.58;;;;;;;12.62;100.00;99570.13;5025463;28;20037;-75
2024/04/04 01:21:02;;;;;;;8.77;1.67;;;;;;;12.62;100.00;99576.53;5041794;28;20043;-75
2024/04/04 01:23:28;;;;;;;8.45;1.48;;;;;;;12.63;100.00;99571.78;5041762;28;20044;-75
2024/04/04 01:25:53;;;;;;;8.88;1.63;;;;;;;12.61;100.00;99583.25;5042030;28;20094;-75
2024/04/04 01:28:19;;;;;;;6.82;1.40;;;;;;;12.61;100.00;99566.53;5058384;28;20044;-75
2024/04/04 01:30:45;;;;;;;7.82;1.70;;;;;;;12.61;100.00;99566.53;5076098;28;20519;-75
2024/04/04 01:33:11;;;;;;;8.90;1.70;;;;;;;12.62;100.00;99559.84;5042361;28;20025;-75
2024/04/04 01:35:36;;;;;;;10.00;1.55;;;;;;;12.61;100.00;99569.31;5025609;28;20091;-75
2024/04/04 01:38:02;;;;;;;10.43;1.83;;;;;;;12.64;100.00;99568.66;5025043;28;20378;-75
2024/04/04 01:40:27;;;;;;;13.35;2.35;;;;;;;12.60;100.00;99573.25;5058004;28;20039;-75
2024/04/04 01:42:53;;;;;;;12.77;1.80;;;;;;;12.64;100.00;99568.66;5075857;28;20090;-75
2024/04/04 01:45:18;;;;;;;10.73;2.08;;;;;;;12.61;100.00;99568.50;5041176;28;20036;-76
2024/04/04 01:47:44;;;;;;;12.55;1.85;;;;;;;12.61;100.00;99569.31;5031784;28;20037;-75
2024/04/04 01:50:09;;;;;;;9.30;1.80;;;;;;;12.64;100.00;99573.41;5069486;28;20071;-75
2024/04/04 01:52:35;;;;;;;8.80;1.80;;;;;;;12.62;100.00;99564.56;5025902;28;20424;-76
2024/04/04 01:55:00;;;;;;;11.23;1.67;;;;;;;12.59;100.00;99554.94;5058072;28;20048;-75
2024/04/04 01:57:26;;;;;;;13.88;2.03;;;;;;;12.61;100.00;99574.06;5030704;28;20043;-75
2024/04/04 01:59:51;;;;;;;7.43;1.65;;;;;;;12.60;100.00;99570.47;5041266;28;20032;-75
2024/04/04 02:02:17;;;;;;;13.15;1.85;;;;;;;12.57;100.00;99568.34;5024783;28;20042;-75
2024/04/04 02:04:42;;;;;;;7.65;1.85;;;;;;;12.61;100.00;99568.50;5024940;28;20044;-75
2024/04/04 02:07:08;;;;;;;8.05;1.50;;;;;;;12.60;100.00;99570.47;5041564;28;20447;-75
2024/04/04 02:09:33;;;;;;;13.88;1.52;;;;;;;12.59;100.00;99566.06;5040460;28;20040;-76
2024/04/04 02:11:59;;;;;;;7.18;1.38;;;;;;;12.59;100.00;99552.13;5019135;28;20036;-76
2024/04/04 02:14:24;;;;;;;4.47;0.90;;;;;;;12.60;100.00;99537.06;5041320;28;20094;-75
2024/04/04 02:16:50;;;;;;;9.20;1.10;;;;;;;12.59;100.00;99532.66;5041438;28;20408;-76
2024/04/04 02:19:15;;;;;;;4.47;0.80;;;;;;;12.59;100.00;99524.28;5041255;28;20043;-76
2024/04/04 02:21:41;;;;;;;3.80;0.95;;;;;;;12.59;100.00;99549.34;5057603;28;20044;-75
2024/04/04 02:24:07;;;;;;;6.13;0.95;;;;;;;12.57;100.00;99561.97;5024474;28;20404;-75
2024/04/04 02:26:33;;;;;;;2.20;0.70;;;;;;;12.53;100.00;99545.09;5040866;28;20427;-75
2024/04/04 02:28:59;;;;;;;3.60;1.02;;;;;;;12.53;100.00;99556.22;5015560;28;20032;-75
2024/04/04 02:31:25;;;;;;;2.47;0.60;;;;;;;12.50;100.00;99554.91;5034582;28;20076;-75
2024/04/04 02:33:50;;;;;;;4.18;0.85;;;;;;;12.47;100.00;99557.56;5034426;28;20552;-75
2024/04/04 02:36:16;;;;;;;2.28;0.60;;;;;;;12.47;100.00;99563.13;5041122;28;20063;-75
2024/04/04 02:38:41;;;;;;;3.17;0.73;;;;;;;12.44;100.00;99547.88;5057914;28;20044;-75
2024/04/04 02:41:07;;;;;;;2.58;0.50;;;;;;;12.45;100.00;99548.69;5057704;28;20032;-75
2024/04/04 02:43:33;;;;;;;1.42;0.40;;;;;;;12.43;100.00;99545.44;5040910;28;20490;-75
2024/04/04 02:46:02;;;;;;;3.70;0.60;;;;;;;12.43;100.00;99535.13;5026091;28;20086;-75
2024/04/04 02:48:28;;;;;;;2.90;0.40;;;;;;;12.39;100.00;99542.47;5064788;28;20028;-75
2024/04/04 02:50:54;;;;;;;1.33;0.30;;;;;;;12.38;100.00;99545.63;5007271;28;20064;-75
2024/04/04 02:53:20;;;;;;;6.07;0.63;;;;;;;12.36;100.00;99557.06;5018040;28;20523;-75
2024/04/04 02:55:55;;;;;;;3.58;0.43;;;;;;;12.36;100.00;99557.06;5057362;28;20033;-75
2024/04/04 02:58:21;;;;;;;1.38;0.35;;;;;;;12.32;100.00;99564.47;5016123;28;20029;-75
2024/04/04 03:00:47;;;;;;;3.03;0.60;;;;;;;12.33;100.00;99580.00;5040090;28;20082;-75
2024/04/04 03:03:13;;;;;;;4.15;0.55;;;;;;;12.32;100.00;99572.81;5074820;28;20057;-75
2024/04/04 03:05:42;;;;;;;3.28;0.40;;;;;;;12.34;100.00;99566.91;5057986;28;20503;-75
2024/04/04 03:08:07;;;;;;;3.10;0.35;;;;;;;12.30;100.00;99564.78;5027465;28;20029;-75
2024/04/04 03:10:33;;;;;;;1.17;0.40;;;;;;;12.28;100.00;99564.28;5023453;28;20044;-75
2024/04/04 03:12:59;;;;;;;2.40;0.57;;;;;;;12.26;100.00;99572.16;5044666;28;20040;-75
2024/04/04 03:15:25;;;;;;;1.27;0.40;;;;;;;12.24;100.00;99571.66;5040636;28;20174;-75
2024/04/04 03:17:50;;;;;;;2.67;0.65;;;;;;;12.26;100.00;99586.06;5072384;28;20036;-75
2024/04/04 03:20:16;;;;;;;1.38;0.60;;;;;;;12.26;100.00;99580.50;5060606;28;20112;-75
2024/04/04 03:22:41;;;;;;;3.75;0.55;;;;;;;12.25;100.00;99576.06;5044231;28;20036;-75
2024/04/04 03:25:06;;;;;;;2.13;0.70;;;;;;;12.24;100.00;99584.75;5027490;28;20369;-75
2024/04/04 03:27:32;;;;;;;3.25;0.68;;;;;;;12.22;100.00;99579.50;5027698;28;20036;-75
2024/04/04 03:29:57;;;;;;;6.35;0.90;;;;;;;12.24;100.00;99571.66;5060566;28;20507;-75
2024/04/04 03:32:23;;;;;;;4.97;1.05;;;;;;;12.24;100.00;99577.22;5078553;28;20040;-75
2024/04/04 03:34:48;;;;;;;2.95;0.85;;;;;;;12.23;100.00;99581.16;5078403;28;20604;-75
2024/04/04 03:37:14;;;;;;;4.50;1.08;;;;;;;12.24;100.00;99577.22;5017108;28;20095;-75
2024/04/04 03:39:41;;;;;;;7.45;1.02;;;;;;;12.21;100.00;99575.09;5060150;28;20036;-75
2024/04/04 03:42:06;;;;;;;3.40;0.90;;;;;;;12.18;100.00;99572.16;5044388;28;20036;-75
2024/04/04 03:44:32;;;;;;;8.45;1.33;;;;;;;12.21;100.00;99561.19;5077386;28;20062;-75
2024/04/04 03:46:58;;;;;;;3.63;0.88;;;;;;;12.21;100.00;99563.97;5070895;28;20051;-75
2024/04/04 03:49:23;;;;;;;7.82;1.25;;;;;;;12.16;100.00;99547.44;5025277;28;20046;-75
2024/04/04 03:51:52;;;;;;;5.57;1.20;;;;;;;12.15;100.00;99559.72;5027225;28;20048;-75
2024/04/04 03:54:17;;;;;;;9.82;1.80;;;;;;;12.15;100.00;99562.50;5060499;28;20033;-75
2024/04/04 03:56:43;;;;;;;7.65;1.45;;;;;;;12.11;100.00;99558.72;5007809;28;20037;-75
2024/04/04 03:59:08;;;;;;;7.53;1.58;;;;;;;12.07;100.00;99582.78;5077734;28;20435;-75
2024/04/04 04:01:34;;;;;;;7.40;1.33;;;;;;;12.03;100.00;99585.41;5078094;28;20040;-75
2024/04/04 04:03:59;;;;;;;7.40;1.42;;;;;;;12.06;100.00;99581.13;5043216;28;20128;-75
2024/04/04 04:06:25;;;;;;;10.23;2.08;;;;;;;12.04;100.00;99577.88;5027544;28;20041;-75
2024/04/04 04:08:50;;;;;;;12.60;1.95;;;;;;;11.99;100.00;99583.59;5059964;28;20554;-75
2024/04/04 04:11:15;;;;;;;11.57;2.35;;;;;;;11.97;100.00;99591.47;5043511;28;20032;-75
2024/04/04 04:13:45;;;;;;;13.82;2.05;;;;;;;11.97;100.00;99589.47;5043098;28;20090;-75
2024/04/04 04:16:11;;;;;;;10.57;2.00;;;;;;;11.97;100.00;99588.66;5026526;28;20035;-75
2024/04/04 04:18:36;;;;;;;13.18;2.70;;;;;;;11.95;100.00;99594.59;5042722;28;20037;-75
2024/04/04 04:21:19;;;;;;;12.77;1.70;;;;;;;11.93;100.00;99596.06;5040146;28;20036;-75
2024/04/04 04:23:51;;;;;;;15.38;2.35;;;;;;;11.94;100.00;99587.34;5045655;28;20489;-75
2024/04/04 04:26:17;;;;;;;15.73;2.53;;;;;;;11.95;100.00;99594.59;5026417;28;20042;-74
2024/04/04 04:28:43;;;;;;;14.98;2.70;;;;;;;11.91;100.00;99601.91;5060186;28;20370;-75
2024/04/04 04:31:41;;;;;;;16.23;3.17;;;;;;;11.96;100.00;99595.41;5026400;28;20032;-75
2024/04/04 04:34:07;;;;;;;16.30;3.17;;;;;;;11.90;100.00;99594.72;4991924;28;20037;-75
2024/04/04 04:36:36;;;;;;;17.08;3.33;;;;;;;11.89;100.00;99592.25;5077440;28;20063;-75
2024/04/04 04:39:02;;;;;;;17.25;3.08;;;;;;;11.90;100.00;99599.47;5076953;28;20040;-75
2024/04/04 04:41:28;;;;;;;24.15;3.38;;;;;;;11.92;100.00;99605.53;5026553;28;20032;-75
2024/04/04 04:43:53;;;;;;;26.27;3.65;;;;;;;11.92;100.00;99597.19;5042606;28;20036;-74
2024/04/04 04:46:19;;;;;;;22.10;3.85;;;;;;;11.93;100.00;99599.66;5047313;28;20044;-75
2024/04/04 04:48:45;;;;;;;20.30;3.80;;;;;;;11.92;100.00;99602.75;5029165;28;20405;-75
2024/04/04 04:51:10;;;;;;;21.13;4.45;;;;;;;11.93;100.00;99604.41;5059133;28;20040;-75
2024/04/04 04:53:36;;;;;;;20.65;4.45;;;;;;;11.88;100.00;99598.97;5058868;28;20048;-75
2024/04/04 04:56:02;;;;;;;26.27;4.07;;;;;;;11.91;100.00;99606.69;5042623;28;20365;-75
2024/04/04 04:58:28;;;;;;;25.92;4.43;;;;;;;11.90;100.00;99605.03;5022707;28;20049;-75
2024/04/04 05:00:54;;;;;;;22.17;4.05;;;;;;;11.92;100.00;99602.75;5042476;28;20055;-75
2024/04/04 05:03:20;;;;;;;20.88;4.18;;;;;;;11.90;100.00;99605.88;5044855;28;20057;-75
2024/04/04 05:05:46;;;;;;;27.38;4.25;;;;;;;11.91;100.00;99606.69;5022520;28;20049;-75
2024/04/04 05:08:11;;;;;;;23.10;4.32;;;;;;;11.93;100.00;99605.22;5021080;28;20094;-75
2024/04/04 05:10:37;;;;;;;25.45;4.35;;;;;;;11.93;100.00;99604.41;5026317;28;20037;-75
2024/04/04 05:13:02;;;;;;;32.45;4.93;;;;;;;11.92;100.00;99608.31;5037866;28;20037;-75
2024/04/04 05:15:28;;;;;;;30.65;4.68;;;;;;;11.94;100.00;99604.06;5038529;28;20448;-75
2024/04/04 05:17:53;;;;;;;22.45;4.80;;;;;;;11.91;100.00;99613.06;5038595;28;20075;-75
2024/04/04 05:20:19;;;;;;;28.33;4.38;;;;;;;11.95;100.00;99610.44;5056603;28;20045;-75
2024/04/04 05:22:44;;;;;;;35.28;5.45;;;;;;;11.94;100.00;99611.59;5056326;28;20608;-75
2024/04/04 05:25:15;;;;;;;31.35;5.40;;;;;;;11.97;100.00;99600.63;5018958;28;20041;-75
2024/04/04 05:27:41;;;;;;;30.77;4.82;;;;;;;11.96;100.00;99617.66;5022139;28;20049;-75
2024/04/04 05:30:10;;;;;;;27.75;5.03;;;;;;;11.94;100.00;99609.63;5000928;28;20092;-75
2024/04/04 05:32:36;;;;;;;32.85;5.57;;;;;;;11.95;100.00;99610.44;5033262;28;20128;-75
2024/04/04 05:35:01;;;;;;;34.28;6.10;;;;;;;11.95;100.00;99614.06;5056388;28;20048;-75
2024/04/04 05:37:26;;;;;;;41.42;6.18;;;;;;;11.96;100.00;99626.81;5038168;28;20052;-75
2024/04/04 05:39:52;;;;;;;47.05;6.57;;;;;;;11.94;100.00;99619.94;5037376;28;20033;-74
2024/04/04 05:42:17;;;;;;;46.17;6.38;;;;;;;11.94;100.00;99631.88;5056216;28;20099;-74
2024/04/04 05:44:43;;;;;;;46.67;7.13;;;;;;;11.95;100.00;99629.91;5037493;28;20077;-75
2024/04/04 05:47:08;;;;;;;36.75;6.05;;;;;;;11.94;100.00;99629.09;5047235;28;20059;-75
2024/04/04 05:49:34;;;;;;;35.88;5.40;;;;;;;11.95;100.00;99627.97;5001621;28;20037;-75
2024/04/04 05:52:00;;;;;;;39.38;6.30;;;;;;;11.97;100.00;99628.44;5032755;28;20045;-75
2024/04/04 05:54:26;;;;;;;34.65;6.07;;;;;;;11.94;100.00;99631.06;5038494;28;20037;-75
2024/04/04 05:56:52;;;;;;;42.80;7.18;;;;;;;11.95;100.00;99635.47;5005298;28;20056;-75
2024/04/04 05:59:17;;;;;;;45.97;6.03;;;;;;;11.95;100.00;99629.91;5046474;28;20481;-75
2024/04/04 06:01:43;;;;;;;45.25;6.65;;;;;;;11.94;100.00;99633.84;5033897;28;20041;-74
2024/04/04 06:04:08;;;;;;;37.65;6.28;;;;;;;11.97;100.00;99638.75;5036987;28;20053;-74
2024/04/04 06:06:34;;;;;;;48.90;6.75;;;;;;;11.98;100.00;99645.94;5037423;28;20070;-75
2024/04/04 06:08:59;;;;;;;36.92;5.55;;;;;;;11.96;100.00;99643.50;5042021;28;20032;-74
2024/04/04 06:11:25;;;;;;;40.25;7.22;;;;;;;11.97;100.00;99647.91;5013640;28;20056;-74
2024/04/04 06:13:50;;;;;;;41.90;6.15;;;;;;;12.01;100.00;99656.47;5021185;28;20029;-74
2024/04/04 06:16:16;;;;;;;38.33;6.07;;;;;;;11.98;100.00;99648.72;5047661;28;20040;-76
2024/04/04 06:18:41;;;;;;;41.08;6.97;;;;;;;12.00;100.00;99660.38;5021616;28;20064;-74
2024/04/04 06:21:06;;;;;;;39.60;7.00;;;;;;;11.99;100.00;99661.53;5019335;28;20091;-74
2024/04/04 06:23:32;;;;;;;34.05;6.70;;;;;;;12.00;100.00;99661.19;5016344;28;20048;-73
2024/04/04 06:25:57;;;;;;;48.03;7.15;;;;;;;11.97;100.00;99664.63;5029342;28;20496;-74
2024/04/04 06:28:23;;;;;;;33.40;5.97;;;;;;;12.01;100.00;99667.59;5023364;28;20037;-74
2024/04/04 06:30:48;;;;;;;47.15;6.70;;;;;;;12.01;100.00;99678.72;5047928;28;20044;-74
2024/04/04 06:33:14;;;;;;;39.72;6.72;;;;;;;12.00;100.00;99677.06;5038395;28;20056;-74
2024/04/04 06:35:39;;;;;;;42.05;7.13;;;;;;;12.03;100.00;99671.66;5038211;28;20045;-74
2024/04/04 06:38:05;;;;;;;37.33;5.70;;;;;;;12.04;100.00;99678.88;5029055;28;20068;-74
2024/04/04 06:40:32;;;;;;;38.67;6.57;;;;;;;12.06;100.00;99681.31;5035104;28;20029;-74
2024/04/04 06:42:58;;;;;;;42.58;6.32;;;;;;;12.09;100.00;99686.28;5007209;28;20040;-74
2024/04/04 06:45:23;;;;;;;37.65;6.90;;;;;;;12.12;100.00;99688.41;5038393;28;20120;-74
2024/04/04 06:47:57;;;;;;;37.83;6.45;;;;;;;12.13;100.00;99687.25;5039646;28;20033;-74
2024/04/04 06:50:24;;;;;;;49.92;6.93;;;;;;;12.15;100.00;99686.94;5005582;28;20040;-74
2024/04/04 06:52:50;;;;;;;39.17;6.38;;;;;;;12.19;100.00;99679.56;5026184;28;20044;-74
2024/04/04 06:55:15;;;;;;;46.70;7.35;;;;;;;12.21;100.00;99688.41;5038545;28;20498;-74
2024/04/04 06:57:41;;;;;;;46.45;7.20;;;;;;;12.24;100.00;99676.63;5019975;28;20036;-74
2024/04/04 07:00:09;;;;;;;44.75;7.32;;;;;;;12.29;100.00;99682.03;5021098;28;20031;-75
2024/04/04 07:02:35;;;;;;;47.10;8.13;;;;;;;12.36;100.00;99690.72;5067795;28;20049;-74
2024/04/04 07:05:01;;;;;;;39.97;6.57;;;;;;;12.41;100.00;99692.53;5020245;28;20063;-74
2024/04/04 07:07:26;;;;;;;48.13;6.93;;;;;;;12.50;100.00;99693.34;5064539;28;20079;-74
2024/04/04 07:09:52;;;;;;;40.50;6.85;;;;;;;12.57;100.00;99699.25;5051093;28;20041;-74
2024/04/04 07:12:18;;;;;;;42.40;7.45;;;;;;;12.69;100.00;99707.78;5031169;28;20499;-74
2024/04/04 07:14:43;;;;;;;40.30;6.82;;;;;;;12.82;100.00;99707.97;5037773;28;20036;-74
2024/04/04 07:17:09;;;;;;;49.40;7.22;;;;;;;12.92;100.00;99704.81;5034704;28;20033;-74
2024/04/04 07:19:35;;;;;;;44.20;7.30;;;;;;;13.00;100.00;99712.34;5053394;28;20045;-74
2024/04/04 07:22:00;;;;;;;41.00;6.70;;;;;;;13.08;100.00;99719.88;5027654;28;20043;-74
2024/04/04 07:24:26;;;;;;;46.53;6.97;;;;;;;13.14;100.00;99715.75;5010778;28;20090;-74
2024/04/04 07:26:51;;;;;;;48.13;7.43;;;;;;;13.17;100.00;99720.69;5036810;28;20032;-74
2024/04/04 07:29:16;;;;;;;41.17;7.93;;;;;;;13.23;100.00;99717.72;5027532;28;20035;-74
2024/04/04 07:31:42;;;;;;;54.05;7.90;;;;;;;13.26;100.00;99717.09;5044095;28;20032;-74
2024/04/04 07:34:07;;;;;;;49.03;7.55;;;;;;;13.31;100.00;99716.91;5012618;28;20045;-74
2024/04/04 07:36:33;;;;;;;43.80;6.70;;;;;;;13.35;100.00;99732.66;5044454;28;20056;-74
2024/04/04 07:38:58;;;;;;;47.75;6.85;;;;;;;13.40;100.00;99738.06;5026864;28;20044;-74
2024/04/04 07:41:24;;;;;;;44.90;7.32;;;;;;;13.46;100.00;99726.75;5078000;28;20085;-74
2024/04/04 07:43:49;;;;;;;38.53;7.20;;;;;;;13.51;100.00;99732.97;5077557;28;20037;-74
2024/04/04 07:46:18;;;;;;;36.25;6.15;;;;;;;13.58;100.00;99741.63;5081916;28;20039;-74
2024/04/04 07:48:44;;;;;;;48.60;6.80;;;;;;;13.66;100.00;99733.56;5048150;28;20484;-74
2024/04/04 07:51:10;;;;;;;41.75;6.90;;;;;;;13.72;100.00;99743.38;5043599;28;20064;-74
2024/04/04 07:53:35;;;;;;;44.83;7.10;;;;;;;13.76;100.00;99747.97;5042751;28;20040;-74
2024/04/04 07:56:01;;;;;;;41.15;6.38;;;;;;;13.82;100.00;99756.97;5043691;28;20036;-74
2024/04/04 07:58:27;;;;;;;42.05;7.32;;;;;;;13.87;100.00;99762.34;5063625;28;20121;-74
2024/04/04 08:00:53;;;;;;;47.58;7.43;;;;;;;13.94;100.00;99768.25;5026430;28;20029;-74
2024/04/04 08:03:18;;;;;;;44.42;7.40;;;;;;;13.97;100.00;99767.59;5043033;28;20074;-74
2024/04/04 08:05:54;;;;;;;41.55;7.07;;;;;;;14.03;100.00;99774.59;5026835;28;20066;-74
2024/04/04 08:08:20;;;;;;;42.05;6.22;;;;;;;14.06;100.00;99771.16;5027202;28;20245;-74
2024/04/04 08:10:48;;;;;;;42.20;6.90;;;;;;;14.11;100.00;99769.34;5043596;28;20495;-74
2024/04/04 08:13:14;;;;;;;45.30;6.40;;;;;;;14.13;100.00;99778.19;5025853;28;20064;-74
2024/04/04 08:15:40;;;;;;;40.10;6.50;;;;;;;14.17;100.00;99774.38;5048812;28;20040;-73
2024/04/04 08:18:06;;;;;;;38.08;6.07;;;;;;;14.20;100.00;99770.09;5077625;28;20066;-74
2024/04/04 08:20:31;;;;;;;50.33;6.75;;;;;;;14.24;100.00;99785.88;5059969;28;20044;-74
2024/04/04 08:22:57;;;;;;;30.95;5.95;;;;;;;14.28;100.00;99786.00;5077447;28;20037;-74
2024/04/04 08:25:22;;;;;;;34.80;6.43;;;;;;;14.36;100.00;99781.53;5043057;28;20037;-74
2024/04/04 08:27:48;;;;;;;41.05;6.07;;;;;;;14.43;100.00;99791.03;5039193;28;20510;-74
2024/04/04 08:30:13;;;;;;;49.95;7.72;;;;;;;14.50;100.00;99796.06;5010120;28;20024;-74
2024/04/04 08:32:39;;;;;;;43.00;7.65;;;;;;;14.57;100.00;99799.19;5026549;28;20086;-74
2024/04/04 08:35:09;;;;;;;43.10;6.82;;;;;;;14.61;100.00;99802.13;5077627;28;20033;-74
2024/04/04 08:37:36;;;;;;;37.42;6.95;;;;;;;14.69;100.00;99801.25;5011088;28;20052;-74
2024/04/04 08:40:01;;;;;;;41.22;6.07;;;;;;;14.78;100.00;99798.38;5039434;28;20180;-74
2024/04/04 08:42:29;;;;;;;47.58;7.10;;;;;;;14.86;100.00;99795.53;5042904;28;20044;-74
2024/04/04 08:44:55;;;;;;;43.55;6.18;;;;;;;14.96;100.00;99805.50;5026206;28;20032;-74
2024/04/04 08:47:21;;;;;;;42.15;5.80;;;;;;;15.06;100.00;99804.25;5036304;28;20428;-74
2024/04/04 08:49:47;;;;;;;36.20;6.47;;;;;;;15.17;100.00;99802.69;5029079;28;20405;-74
2024/04/04 08:52:13;;;;;;;41.67;6.18;;;;;;;15.28;100.00;99805.88;5056398;28;20427;-74
2024/04/04 08:54:38;;;;;;;37.08;6.38;;;;;;;15.42;100.00;99801.63;5043053;28;20036;-74
2024/04/04 08:57:04;;;;;;;36.83;5.55;;;;;;;15.58;100.00;99801.00;5008964;28;20033;-74
2024/04/04 08:59:30;;;;;;;35.50;6.28;;;;;;;15.73;100.00;99793.94;5059175;28;20040;-74
2024/04/04 09:01:57;;;;;;;39.20;6.22;;;;;;;15.93;100.00;99798.66;5025795;28;20499;-74
2024/04/04 09:04:26;;;;;;;39.05;6.75;;;;;;;16.13;100.00;99813.75;5025688;28;20131;-74
2024/04/04 09:06:52;;;;;;;34.67;6.30;;;;;;;16.28;100.00;99810.25;5041702;28;20488;-74
2024/04/04 09:09:18;;;;;;;29.45;5.80;;;;;;;16.49;100.00;99826.13;5026076;28;20127;-74
2024/04/04 09:11:44;;;;;;;34.97;5.82;;;;;;;16.68;100.00;99811.53;5041706;28;20488;-74
2024/04/04 09:14:09;;;;;;;34.45;6.25;;;;;;;16.87;100.00;99820.16;5025666;28;20051;-74
2024/04/04 09:16:44;;;;;;;32.15;5.38;;;;;;;17.06;100.00;99815.94;5037952;28;20032;-74
2024/04/04 09:19:18;;;;;;;29.98;5.35;;;;;;;17.24;100.00;99822.06;5041991;28;20493;-74
2024/04/04 09:21:47;;;;;;;34.25;5.78;;;;;;;17.36;100.00;99831.28;5041320;28;20040;-74
2024/04/04 09:24:16;;;;;;;33.08;5.60;;;;;;;17.49;100.00;99836.81;5042897;28;20040;-74
2024/04/04 09:26:49;;;;;;;29.83;4.88;;;;;;;17.60;100.00;99840.75;5041823;28;20487;-74
2024/04/04 09:29:14;;;;;;;33.50;5.32;;;;;;;17.69;100.00;99847.06;5042411;28;20135;-74
2024/04/04 09:31:41;;;;;;;26.00;4.72;;;;;;;17.80;100.00;99850.16;5026112;28;20036;-74
2024/04/04 09:34:07;;;;;;;34.85;6.03;;;;;;;17.93;100.00;99840.50;5026021;28;20036;-74
2024/04/04 09:36:33;;;;;;;34.50;5.30;;;;;;;18.07;100.00;99849.31;5025618;28;20045;-74
2024/04/04 09:39:02;;;;;;;23.70;5.35;;;;;;;18.23;100.00;99851.34;5041228;28;20119;-74
2024/04/04 09:41:29;;;;;;;37.17;5.50;;;;;;;18.38;100.00;99852.50;5038757;28;20029;-74
2024/04/04 09:43:57;;;;;;;32.13;5.55;;;;;;;18.49;100.00;99847.97;5020532;28;20090;-74
2024/04/04 09:46:22;;;;;;;24.20;4.32;;;;;;;18.65;100.00;99850.78;5081294;28;20047;-74
2024/04/04 09:48:48;;;;;;;33.15;4.95;;;;;;;18.78;100.00;99849.53;5062398;28;20041;-74
2024/04/04 09:51:14;;;;;;;31.48;5.68;;;;;;;18.94;100.00;99853.13;5041766;28;20037;-74
2024/04/04 09:53:39;;;;;;;30.08;4.43;;;;;;;19.04;100.00;99853.72;5040375;28;20041;-74
2024/04/04 09:56:05;;;;;;;30.58;5.03;;;;;;;19.15;100.00;99855.59;5041523;28;20391;-74
2024/04/04 09:58:33;;;;;;;27.52;4.53;;;;;;;19.23;100.00;99853.75;5027623;28;20580;-74
2024/04/04 10:01:31;;;;;;;26.27;5.22;;;;;;;19.34;100.00;99868.09;5025267;28;20553;-74
2024/04/04 10:03:58;;;;;;;31.30;4.75;;;;;;;19.37;100.00;99864.53;4998775;28;20053;-74
2024/04/04 10:06:35;;;;;;;29.92;4.53;;;;;;;19.31;100.00;99858.38;5021770;28;20484;-74
2024/04/04 10:09:00;;;;;;;27.45;4.47;;;;;;;19.31;100.00;99861.19;5063757;28;20103;-74
2024/04/04 10:11:29;;;;;;;33.58;4.85;;;;;;;19.34;100.00;99865.28;5025077;28;20488;-74
2024/04/04 10:13:59;;;;;;;30.05;5.22;;;;;;;19.28;100.00;99856.28;5001959;28;20041;-74
2024/04/04 10:16:32;;;;;;;24.42;4.70;;;;;;;19.27;100.00;99860.28;5051925;28;20109;-74
2024/04/04 10:19:13;;;;;;;25.73;4.57;;;;;;;19.26;100.00;99850.22;5027209;28;20493;-74
2024/04/04 10:21:39;;;;;;;24.77;4.70;;;;;;;19.27;100.00;99859.47;5018827;28;20068;-74
2024/04/04 10:24:06;;;;;;;26.38;4.93;;;;;;;19.28;100.00;99842.22;5058067;28;20520;-74
2024/04/04 10:26:31;;;;;;;31.10;5.22;;;;;;;19.33;100.00;99855.97;5041246;28;20396;-74
2024/04/04 10:28:57;;;;;;;30.08;5.45;;;;;;;19.38;100.00;99849.25;5024326;28;20032;-74
2024/04/04 10:31:24;;;;;;;32.75;4.63;;;;;;;19.48;100.00;99864.75;5037842;28;20055;-74
2024/04/04 10:34:09;;;;;;;32.03;4.75;;;;;;;19.50;100.00;99851.94;5037146;28;20043;-75
2024/04/04 10:36:44;;;;;;;25.17;4.28;;;;;;;19.56;100.00;99866.53;5047718;28;20048;-72
2024/04/04 10:39:16;;;;;;;32.53;5.60;;;;;;;19.62;100.00;99862.25;5081474;28;20049;-72
2024/04/04 10:41:45;;;;;;;26.23;4.75;;;;;;;19.66;100.00;99862.34;5031168;28;20477;-72
2024/04/04 10:44:15;;;;;;;32.25;5.57;;;;;;;19.70;100.00;99866.06;5034708;28;20045;-72
2024/04/04 10:46:50;;;;;;;26.80;5.15;;;;;;;19.70;100.00;99872.50;5050736;28;20044;-72
2024/04/04 10:49:17;;;;;;;30.90;5.07;;;;;;;19.68;100.00;99880.50;5036293;28;20048;-72
2024/04/04 10:51:54;;;;;;;33.42;5.50;;;;;;;19.69;100.00;99882.13;5019144;28;20047;-72
2024/04/04 10:54:20;;;;;;;28.85;4.32;;;;;;;19.69;100.00;99876.47;5049900;28;20055;-72
2024/04/04 10:56:46;;;;;;;26.20;4.90;;;;;;;19.65;100.00;99875.56;5053981;28;20036;-72
2024/04/04 10:59:12;;;;;;;27.33;4.55;;;;;;;19.64;100.00;99879.59;5016140;28;20395;-72
2024/04/04 11:01:38;;;;;;;29.08;4.78;;;;;;;19.61;100.00;99892.41;5022713;28;20041;-72
2024/04/04 11:04:08;;;;;;;31.27;5.57;;;;;;;19.57;100.00;99894.31;5053673;28;20040;-72
2024/04/04 11:06:34;;;;;;;37.60;5.32;;;;;;;19.61;100.00;99874.66;5005528;28;20135;-72
2024/04/04 11:09:04;;;;;;;26.45;5.63;;;;;;;19.66;100.00;99876.41;5055443;28;20265;-72
2024/04/04 11:11:29;;;;;;;31.48;4.90;;;;;;;19.72;100.00;99881.38;5020578;28;20040;-72
2024/04/04 11:13:55;;;;;;;26.27;4.15;;;;;;;19.77;100.00;99888.72;5050483;28;20049;-72
2024/04/04 11:16:21;;;;;;;24.17;5.03;;;;;;;19.85;100.00;99884.84;5050803;28;20044;-72